sensor_id;sensor_type;location;lat;lon;timestamp;pressure;altitude;pressure_sealevel;temperature;humidity
48089;BME280;33867;50.314;7.802;2022-12-29T00:01:31;99586.09;;;10.03;nan
48089;BME280;33867;50.314;7.802;2022-12-29T00:04:51;99561.03;;;9.94;nan
48089;BME280;33867;50.314;7.802;2022-12-29T00:08:10;99572.63;;;9.95;nan
48089;BME280;33867;50.314;7.802;2022-12-29T00:11:29;99573.88;;;9.83;nan
48089;BME280;33867;50.314;7.802;2022-12-29T00:14:48;99576.84;;;9.72;nan
48089;BME280;33867;50.314;7.802;2022-12-29T00:18:26;99572.16;;;9.56;nan
48089;BME280;33867;50.314;7.802;2022-12-29T00:21:46;99571.47;;;9.54;nan
48089;BME280;33867;50.314;7.802;2022-12-29T00:25:23;99574.63;;;9.49;nan
48089;BME280;33867;50.314;7.802;2022-12-29T00:29:02;99570.88;;;9.42;nan
48089;BME280;33867;50.314;7.802;2022-12-29T00:32:40;99560.66;;;9.46;nan
48089;BME280;33867;50.314;7.802;2022-12-29T00:50:55;99545.81;;;9.16;nan
48089;BME280;33867;50.314;7.802;2022-12-29T00:54:15;99536.50;;;9.28;nan
48089;BME280;33867;50.314;7.802;2022-12-29T00:57:35;99529.22;;;9.20;nan
48089;BME280;33867;50.314;7.802;2022-12-29T01:01:04;99526.94;;;9.25;nan
48089;BME280;33867;50.314;7.802;2022-12-29T01:04:25;99534.44;;;9.22;nan
48089;BME280;33867;50.314;7.802;2022-12-29T01:57:01;99491.09;;;9.17;nan
48089;BME280;33867;50.314;7.802;2022-12-29T02:00:22;99489.97;;;9.01;nan
48089;BME280;33867;50.314;7.802;2022-12-29T02:03:41;99490.50;;;9.05;nan
48089;BME280;33867;50.314;7.802;2022-12-29T02:07:06;99479.88;;;9.21;nan
48089;BME280;33867;50.314;7.802;2022-12-29T02:10:31;99480.09;;;9.28;nan
48089;BME280;33867;50.314;7.802;2022-12-29T02:13:51;99471.03;;;9.29;nan
48089;BME280;33867;50.314;7.802;2022-12-29T02:31:59;99472.78;;;9.38;nan
48089;BME280;33867;50.314;7.802;2022-12-29T02:35:28;99461.72;;;9.15;nan
48089;BME280;33867;50.314;7.802;2022-12-29T02:53:25;99437.06;;;9.20;nan
48089;BME280;33867;50.314;7.802;2022-12-29T03:37:10;99382.44;;;9.37;nan
48089;BME280;33867;50.314;7.802;2022-12-29T03:40:31;99390.63;;;9.27;nan
48089;BME280;33867;50.314;7.802;2022-12-29T03:43:52;99386.41;;;9.25;nan
48089;BME280;33867;50.314;7.802;2022-12-29T04:15:19;99364.44;;;9.29;nan
48089;BME280;33867;50.314;7.802;2022-12-29T04:18:38;99369.19;;;9.35;nan
48089;BME280;33867;50.314;7.802;2022-12-29T04:21:58;99369.38;;;9.42;nan
48089;BME280;33867;50.314;7.802;2022-12-29T04:25:17;99370.38;;;9.41;nan
48089;BME280;33867;50.314;7.802;2022-12-29T04:28:37;99369.19;;;9.44;nan
48089;BME280;33867;50.314;7.802;2022-12-29T04:32:04;99362.81;;;9.36;nan
48089;BME280;33867;50.314;7.802;2022-12-29T04:35:25;99370.22;;;9.43;nan
48089;BME280;33867;50.314;7.802;2022-12-29T05:22:07;99353.09;;;9.86;nan
48089;BME280;33867;50.314;7.802;2022-12-29T05:25:26;99351.72;;;9.82;nan
48089;BME280;33867;50.314;7.802;2022-12-29T05:32:12;99359.47;;;9.93;nan
48089;BME280;33867;50.314;7.802;2022-12-29T05:35:31;99343.34;;;9.93;nan
48089;BME280;33867;50.314;7.802;2022-12-29T05:38:50;99345.69;;;9.88;nan
48089;BME280;33867;50.314;7.802;2022-12-29T05:42:10;99346.38;;;9.90;nan
48089;BME280;33867;50.314;7.802;2022-12-29T05:56:22;99367.22;;;9.88;nan
48089;BME280;33867;50.314;7.802;2022-12-29T05:59:47;99367.53;;;9.93;nan
48089;BME280;33867;50.314;7.802;2022-12-29T06:03:08;99361.50;;;9.91;nan
48089;BME280;33867;50.314;7.802;2022-12-29T06:10:06;99351.75;;;9.90;nan
48089;BME280;33867;50.314;7.802;2022-12-29T06:13:33;99358.47;;;9.94;nan
48089;BME280;33867;50.314;7.802;2022-12-29T06:16:52;99360.50;;;10.00;nan
48089;BME280;33867;50.314;7.802;2022-12-29T06:20:12;99354.28;;;9.91;nan
48089;BME280;33867;50.314;7.802;2022-12-29T06:23:31;99348.41;;;9.96;nan
48089;BME280;33867;50.314;7.802;2022-12-29T06:26:51;99356.16;;;9.99;nan
48089;BME280;33867;50.314;7.802;2022-12-29T06:30:11;99347.03;;;9.92;nan
48089;BME280;33867;50.314;7.802;2022-12-29T06:33:32;99356.44;;;9.88;nan
48089;BME280;33867;50.314;7.802;2022-12-29T06:52:12;99373.38;;;9.72;nan
48089;BME280;33867;50.314;7.802;2022-12-29T06:55:31;99363.09;;;9.67;nan
48089;BME280;33867;50.314;7.802;2022-12-29T07:02:10;99365.44;;;9.71;nan
48089;BME280;33867;50.314;7.802;2022-12-29T07:05:30;99364.25;;;9.65;nan
48089;BME280;33867;50.314;7.802;2022-12-29T07:08:51;99351.31;;;9.60;nan
48089;BME280;33867;50.314;7.802;2022-12-29T07:12:12;99345.78;;;9.70;nan
48089;BME280;33867;50.314;7.802;2022-12-29T07:18:56;99356.91;;;9.75;nan
48089;BME280;33867;50.314;7.802;2022-12-29T07:22:16;99354.34;;;9.65;nan
48089;BME280;33867;50.314;7.802;2022-12-29T07:36:56;99384.13;;;9.72;nan
48089;BME280;33867;50.314;7.802;2022-12-29T07:40:15;99390.34;;;9.73;nan
48089;BME280;33867;50.314;7.802;2022-12-29T07:43:34;99397.69;;;9.71;nan
48089;BME280;33867;50.314;7.802;2022-12-29T07:47:13;99415.59;;;9.88;nan
48089;BME280;33867;50.314;7.802;2022-12-29T07:50:33;99463.28;;;9.78;nan
48089;BME280;33867;50.314;7.802;2022-12-29T07:53:54;99471.00;;;9.73;nan
48089;BME280;33867;50.314;7.802;2022-12-29T08:08:07;99462.78;;;9.48;nan
48089;BME280;33867;50.314;7.802;2022-12-29T08:11:26;99465.47;;;9.48;nan
48089;BME280;33867;50.314;7.802;2022-12-29T08:14:45;99472.19;;;9.52;nan
48089;BME280;33867;50.314;7.802;2022-12-29T08:42:55;99490.66;;;9.47;nan
48089;BME280;33867;50.314;7.802;2022-12-29T08:46:14;99478.06;;;9.48;nan
48089;BME280;33867;50.314;7.802;2022-12-29T08:49:34;99492.38;;;9.56;nan
48089;BME280;33867;50.314;7.802;2022-12-29T08:52:53;99499.44;;;9.57;nan
48089;BME280;33867;50.314;7.802;2022-12-29T08:56:12;99500.59;;;9.55;nan
48089;BME280;33867;50.314;7.802;2022-12-29T08:59:38;99505.13;;;9.54;nan
48089;BME280;33867;50.314;7.802;2022-12-29T09:02:57;99511.84;;;9.50;nan
48089;BME280;33867;50.314;7.802;2022-12-29T09:06:17;99513.53;;;9.51;nan
48089;BME280;33867;50.314;7.802;2022-12-29T09:09:36;99521.25;;;9.54;nan
48089;BME280;33867;50.314;7.802;2022-12-29T09:12:55;99536.44;;;9.63;nan
48089;BME280;33867;50.314;7.802;2022-12-29T09:16:15;99529.56;;;9.69;nan
48089;BME280;33867;50.314;7.802;2022-12-29T09:19:34;99520.22;;;9.73;nan
48089;BME280;33867;50.314;7.802;2022-12-29T09:22:53;99530.53;;;9.86;nan
48089;BME280;33867;50.314;7.802;2022-12-29T09:26:13;99535.19;;;9.76;nan
48089;BME280;33867;50.314;7.802;2022-12-29T09:29:32;99526.94;;;9.77;nan
48089;BME280;33867;50.314;7.802;2022-12-29T09:32:51;99534.59;;;9.64;nan
48089;BME280;33867;50.314;7.802;2022-12-29T09:36:10;99537.81;;;9.67;nan
48089;BME280;33867;50.314;7.802;2022-12-29T09:39:29;99550.31;;;9.77;nan
48089;BME280;33867;50.314;7.802;2022-12-29T09:43:20;99535.97;;;9.68;nan
48089;BME280;33867;50.314;7.802;2022-12-29T09:46:45;99530.75;;;9.66;nan
48089;BME280;33867;50.314;7.802;2022-12-29T09:50:21;99539.19;;;9.72;nan
48089;BME280;33867;50.314;7.802;2022-12-29T09:53:46;99534.22;;;9.85;nan
48089;BME280;33867;50.314;7.802;2022-12-29T09:57:34;99534.53;;;9.82;nan
48089;BME280;33867;50.314;7.802;2022-12-29T10:04:45;99547.50;;;9.86;nan
48089;BME280;33867;50.314;7.802;2022-12-29T10:08:24;99547.94;;;9.74;nan
48089;BME280;33867;50.314;7.802;2022-12-29T10:15:48;99550.41;;;9.67;nan
48089;BME280;33867;50.314;7.802;2022-12-29T10:26:40;99574.25;;;9.44;nan
48089;BME280;33867;50.314;7.802;2022-12-29T10:30:01;99573.69;;;9.58;nan
48089;BME280;33867;50.314;7.802;2022-12-29T10:33:34;99562.56;;;9.53;nan
48089;BME280;33867;50.314;7.802;2022-12-29T10:37:12;99581.75;;;9.58;nan
48089;BME280;33867;50.314;7.802;2022-12-29T10:40:42;99572.91;;;9.66;nan
48089;BME280;33867;50.314;7.802;2022-12-29T10:44:02;99556.09;;;9.90;nan
48089;BME280;33867;50.314;7.802;2022-12-29T10:47:27;99553.41;;;9.90;nan
48089;BME280;33867;50.314;7.802;2022-12-29T10:50:50;99564.94;;;9.82;nan
48089;BME280;33867;50.314;7.802;2022-12-29T10:54:23;99555.63;;;9.68;nan
48089;BME280;33867;50.314;7.802;2022-12-29T10:57:45;99566.59;;;9.75;nan
48089;BME280;33867;50.314;7.802;2022-12-29T11:01:08;99572.06;;;9.65;nan
48089;BME280;33867;50.314;7.802;2022-12-29T11:07:59;99596.00;;;9.77;nan
48089;BME280;33867;50.314;7.802;2022-12-29T11:11:27;99596.31;;;9.74;nan
48089;BME280;33867;50.314;7.802;2022-12-29T11:14:47;99594.75;;;9.89;nan
48089;BME280;33867;50.314;7.802;2022-12-29T11:18:17;99595.50;;;9.99;nan
48089;BME280;33867;50.314;7.802;2022-12-29T11:21:38;99601.47;;;9.93;nan
48089;BME280;33867;50.314;7.802;2022-12-29T11:25:10;99605.16;;;9.84;nan
48089;BME280;33867;50.314;7.802;2022-12-29T11:28:30;99602.97;;;9.87;nan
48089;BME280;33867;50.314;7.802;2022-12-29T11:31:55;99609.63;;;10.01;nan
48089;BME280;33867;50.314;7.802;2022-12-29T11:35:36;99608.88;;;9.91;nan
48089;BME280;33867;50.314;7.802;2022-12-29T11:38:59;99617.91;;;10.08;nan
48089;BME280;33867;50.314;7.802;2022-12-29T11:42:23;99629.53;;;9.90;nan
48089;BME280;33867;50.314;7.802;2022-12-29T11:45:47;99622.72;;;9.96;nan
48089;BME280;33867;50.314;7.802;2022-12-29T11:49:19;99609.19;;;10.14;nan
48089;BME280;33867;50.314;7.802;2022-12-29T11:52:38;99627.19;;;10.13;nan
48089;BME280;33867;50.314;7.802;2022-12-29T11:56:01;99624.59;;;10.04;nan
48089;BME280;33867;50.314;7.802;2022-12-29T11:59:36;99618.00;;;9.98;nan
48089;BME280;33867;50.314;7.802;2022-12-29T12:03:03;99619.88;;;10.06;nan
48089;BME280;33867;50.314;7.802;2022-12-29T12:06:23;99622.31;;;9.91;nan
48089;BME280;33867;50.314;7.802;2022-12-29T12:09:58;99649.75;;;9.94;nan
48089;BME280;33867;50.314;7.802;2022-12-29T12:17:17;99631.91;;;9.93;nan
48089;BME280;33867;50.314;7.802;2022-12-29T12:20:50;99625.44;;;10.04;nan
48089;BME280;33867;50.314;7.802;2022-12-29T12:24:30;99620.34;;;10.19;nan
48089;BME280;33867;50.314;7.802;2022-12-29T12:27:57;99616.53;;;10.30;nan
48089;BME280;33867;50.314;7.802;2022-12-29T12:31:27;99614.97;;;10.53;nan
48089;BME280;33867;50.314;7.802;2022-12-29T12:34:52;99612.94;;;10.47;nan
48089;BME280;33867;50.314;7.802;2022-12-29T12:50:14;99618.13;;;10.82;nan
48089;BME280;33867;50.314;7.802;2022-12-29T13:01:22;99604.38;;;11.10;nan
48089;BME280;33867;50.314;7.802;2022-12-29T13:05:02;99614.69;;;11.15;nan
48089;BME280;33867;50.314;7.802;2022-12-29T13:15:18;99614.50;;;11.24;nan
48089;BME280;33867;50.314;7.802;2022-12-29T13:22:17;99611.69;;;11.58;nan
48089;BME280;33867;50.314;7.802;2022-12-29T13:29:54;99613.72;;;11.56;nan
48089;BME280;33867;50.314;7.802;2022-12-29T13:33:30;99610.19;;;11.64;nan
48089;BME280;33867;50.314;7.802;2022-12-29T13:36:59;99612.22;;;11.62;nan
48089;BME280;33867;50.314;7.802;2022-12-29T13:40:23;99613.69;;;11.48;nan
48089;BME280;33867;50.314;7.802;2022-12-29T13:43:45;99613.19;;;11.36;nan
48089;BME280;33867;50.314;7.802;2022-12-29T13:47:28;99622.94;;;11.21;nan
48089;BME280;33867;50.314;7.802;2022-12-29T13:50:57;99629.63;;;11.01;nan
48089;BME280;33867;50.314;7.802;2022-12-29T14:01:45;99620.59;;;11.26;nan
48089;BME280;33867;50.314;7.802;2022-12-29T14:08:41;99623.84;;;10.79;nan
48089;BME280;33867;50.314;7.802;2022-12-29T14:12:00;99614.84;;;10.63;nan
48089;BME280;33867;50.314;7.802;2022-12-29T14:15:22;99628.28;;;10.54;nan
48089;BME280;33867;50.314;7.802;2022-12-29T14:18:43;99626.38;;;10.81;nan
48089;BME280;33867;50.314;7.802;2022-12-29T14:22:04;99614.53;;;11.32;nan
48089;BME280;33867;50.314;7.802;2022-12-29T14:33:02;99630.22;;;12.74;nan
48089;BME280;33867;50.314;7.802;2022-12-29T14:43:37;99638.84;;;11.73;nan
48089;BME280;33867;50.314;7.802;2022-12-29T14:47:04;99655.84;;;11.65;nan
48089;BME280;33867;50.314;7.802;2022-12-29T14:50:39;99650.25;;;11.26;nan
48089;BME280;33867;50.314;7.802;2022-12-29T14:53:59;99658.25;;;11.02;nan
48089;BME280;33867;50.314;7.802;2022-12-29T14:57:22;99655.47;;;10.77;nan
48089;BME280;33867;50.314;7.802;2022-12-29T15:00:44;99685.50;;;10.57;nan
48089;BME280;33867;50.314;7.802;2022-12-29T15:04:13;99674.59;;;10.32;nan
48089;BME280;33867;50.314;7.802;2022-12-29T15:07:33;99672.69;;;10.24;nan
48089;BME280;33867;50.314;7.802;2022-12-29T15:11:09;99677.53;;;10.03;nan
48089;BME280;33867;50.314;7.802;2022-12-29T15:14:34;99675.41;;;9.89;nan
48089;BME280;33867;50.314;7.802;2022-12-29T15:17:54;99680.44;;;9.84;nan
48089;BME280;33867;50.314;7.802;2022-12-29T15:21:14;99670.34;;;9.68;nan
48089;BME280;33867;50.314;7.802;2022-12-29T15:24:57;99659.75;;;9.66;nan
48089;BME280;33867;50.314;7.802;2022-12-29T15:28:17;99665.38;;;9.55;nan
48089;BME280;33867;50.314;7.802;2022-12-29T15:31:46;99676.66;;;9.41;nan
48089;BME280;33867;50.314;7.802;2022-12-29T15:49:13;99692.28;;;8.83;nan
48089;BME280;33867;50.314;7.802;2022-12-29T15:52:33;99686.38;;;8.79;nan
48089;BME280;33867;50.314;7.802;2022-12-29T15:59:24;99693.19;;;8.64;nan
48089;BME280;33867;50.314;7.802;2022-12-29T16:02:44;99684.66;;;8.50;nan
48089;BME280;33867;50.314;7.802;2022-12-29T16:09:43;99704.75;;;8.37;nan
48089;BME280;33867;50.314;7.802;2022-12-29T16:16:43;99693.59;;;8.32;nan
48089;BME280;33867;50.314;7.802;2022-12-29T16:20:16;99705.44;;;8.29;nan
48089;BME280;33867;50.314;7.802;2022-12-29T16:23:36;99713.22;;;8.13;nan
48089;BME280;33867;50.314;7.802;2022-12-29T16:27:01;99720.19;;;8.06;nan
48089;BME280;33867;50.314;7.802;2022-12-29T16:30:26;99720.72;;;8.00;nan
48089;BME280;33867;50.314;7.802;2022-12-29T16:33:53;99729.63;;;7.90;nan
48089;BME280;33867;50.314;7.802;2022-12-29T16:37:28;99736.66;;;7.91;nan
48089;BME280;33867;50.314;7.802;2022-12-29T16:40:55;99733.16;;;7.91;nan
48089;BME280;33867;50.314;7.802;2022-12-29T16:44:23;99731.75;;;7.87;nan
48089;BME280;33867;50.314;7.802;2022-12-29T16:51:31;99741.63;;;7.96;nan
48089;BME280;33867;50.314;7.802;2022-12-29T16:54:59;99742.63;;;7.95;nan
48089;BME280;33867;50.314;7.802;2022-12-29T16:58:24;99741.34;;;7.89;nan
48089;BME280;33867;50.314;7.802;2022-12-29T17:01:44;99742.16;;;7.80;nan
48089;BME280;33867;50.314;7.802;2022-12-29T17:05:03;99752.91;;;7.71;nan
48089;BME280;33867;50.314;7.802;2022-12-29T17:08:22;99750.50;;;7.58;nan
48089;BME280;33867;50.314;7.802;2022-12-29T17:11:41;99758.25;;;7.61;nan
48089;BME280;33867;50.314;7.802;2022-12-29T17:15:26;99765.84;;;7.56;nan
48089;BME280;33867;50.314;7.802;2022-12-29T17:18:34;99769.50;;;7.55;nan
48089;BME280;33867;50.314;7.802;2022-12-29T17:21:55;99773.34;;;7.62;nan
48089;BME280;33867;50.314;7.802;2022-12-29T17:25:17;99771.50;;;7.53;nan
48089;BME280;33867;50.314;7.802;2022-12-29T17:28:37;99780.81;;;7.49;nan
48089;BME280;33867;50.314;7.802;2022-12-29T17:31:57;99782.50;;;7.50;nan
48089;BME280;33867;50.314;7.802;2022-12-29T17:35:17;99774.03;;;7.54;nan
48089;BME280;33867;50.314;7.802;2022-12-29T17:42:11;99770.63;;;7.43;nan
48089;BME280;33867;50.314;7.802;2022-12-29T17:45:31;99770.06;;;7.39;nan
48089;BME280;33867;50.314;7.802;2022-12-29T18:17:18;99813.94;;;6.77;nan
48089;BME280;33867;50.314;7.802;2022-12-29T18:20:38;99814.06;;;6.76;nan
48089;BME280;33867;50.314;7.802;2022-12-29T18:23:57;99824.50;;;6.79;nan
48089;BME280;33867;50.314;7.802;2022-12-29T18:30:47;99835.00;;;6.70;nan
48089;BME280;33867;50.314;7.802;2022-12-29T18:34:12;99830.28;;;6.63;nan
48089;BME280;33867;50.314;7.802;2022-12-29T18:37:31;99838.22;;;6.64;nan
48089;BME280;33867;50.314;7.802;2022-12-29T18:40:51;99834.78;;;6.62;nan
48089;BME280;33867;50.314;7.802;2022-12-29T18:44:12;99832.72;;;6.66;nan
48089;BME280;33867;50.314;7.802;2022-12-29T18:47:31;99835.06;;;6.59;nan
48089;BME280;33867;50.314;7.802;2022-12-29T18:50:50;99837.16;;;6.56;nan
48089;BME280;33867;50.314;7.802;2022-12-29T18:54:24;99834.41;;;6.46;nan
48089;BME280;33867;50.314;7.802;2022-12-29T18:57:44;99831.47;;;6.49;nan
48089;BME280;33867;50.314;7.802;2022-12-29T19:01:06;99831.66;;;6.36;nan
48089;BME280;33867;50.314;7.802;2022-12-29T19:04:26;99836.13;;;6.47;nan
48089;BME280;33867;50.314;7.802;2022-12-29T19:07:45;99840.16;;;6.21;nan
48089;BME280;33867;50.314;7.802;2022-12-29T19:11:04;99833.53;;;6.04;nan
48089;BME280;33867;50.314;7.802;2022-12-29T19:14:23;99848.22;;;6.09;nan
48089;BME280;33867;50.314;7.802;2022-12-29T19:17:42;99844.69;;;6.09;nan
48089;BME280;33867;50.314;7.802;2022-12-29T19:21:02;99851.16;;;6.06;nan
48089;BME280;33867;50.314;7.802;2022-12-29T19:24:26;99849.16;;;6.20;nan
48089;BME280;33867;50.314;7.802;2022-12-29T19:27:46;99853.59;;;6.30;nan
48089;BME280;33867;50.314;7.802;2022-12-29T19:31:07;99862.41;;;6.42;nan
48089;BME280;33867;50.314;7.802;2022-12-29T19:34:27;99857.50;;;6.47;nan
48089;BME280;33867;50.314;7.802;2022-12-29T19:37:47;99849.97;;;6.52;nan
48089;BME280;33867;50.314;7.802;2022-12-29T19:41:07;99856.16;;;6.53;nan
48089;BME280;33867;50.314;7.802;2022-12-29T19:44:26;99851.13;;;6.59;nan
48089;BME280;33867;50.314;7.802;2022-12-29T19:47:45;99858.63;;;6.65;nan
48089;BME280;33867;50.314;7.802;2022-12-29T19:51:07;99859.78;;;6.72;nan
48089;BME280;33867;50.314;7.802;2022-12-29T19:54:27;99872.19;;;6.73;nan
48089;BME280;33867;50.314;7.802;2022-12-29T19:57:46;99851.25;;;6.79;nan
48089;BME280;33867;50.314;7.802;2022-12-29T20:01:20;99863.91;;;6.77;nan
48089;BME280;33867;50.314;7.802;2022-12-29T20:04:39;99863.19;;;6.74;nan
48089;BME280;33867;50.314;7.802;2022-12-29T20:07:58;99871.34;;;6.73;nan
48089;BME280;33867;50.314;7.802;2022-12-29T20:11:17;99872.84;;;6.66;nan
48089;BME280;33867;50.314;7.802;2022-12-29T20:14:38;99880.03;;;6.65;nan
48089;BME280;33867;50.314;7.802;2022-12-29T20:17:59;99879.75;;;6.68;nan
48089;BME280;33867;50.314;7.802;2022-12-29T20:21:20;99874.63;;;6.77;nan
48089;BME280;33867;50.314;7.802;2022-12-29T20:24:40;99878.84;;;6.79;nan
48089;BME280;33867;50.314;7.802;2022-12-29T20:27:59;99886.75;;;6.81;nan
48089;BME280;33867;50.314;7.802;2022-12-29T20:31:25;99891.53;;;6.77;nan
48089;BME280;33867;50.314;7.802;2022-12-29T20:34:45;99891.25;;;6.80;nan
48089;BME280;33867;50.314;7.802;2022-12-29T20:38:04;99885.63;;;6.83;nan
48089;BME280;33867;50.314;7.802;2022-12-29T20:41:24;99897.78;;;6.87;nan
48089;BME280;33867;50.314;7.802;2022-12-29T20:44:43;99893.53;;;6.85;nan
48089;BME280;33867;50.314;7.802;2022-12-29T20:48:02;99901.41;;;6.86;nan
48089;BME280;33867;50.314;7.802;2022-12-29T20:51:22;99910.44;;;6.85;nan
48089;BME280;33867;50.314;7.802;2022-12-29T20:54:41;99905.91;;;6.86;nan
48089;BME280;33867;50.314;7.802;2022-12-29T21:02:19;99923.22;;;6.82;nan
48089;BME280;33867;50.314;7.802;2022-12-29T21:05:39;99924.34;;;6.79;nan
48089;BME280;33867;50.314;7.802;2022-12-29T21:08:58;99934.00;;;6.70;nan
48089;BME280;33867;50.314;7.802;2022-12-29T21:12:18;99943.00;;;6.69;nan
48089;BME280;33867;50.314;7.802;2022-12-29T21:19:07;99938.34;;;6.71;nan
48089;BME280;33867;50.314;7.802;2022-12-29T21:22:26;99944.81;;;6.69;nan
48089;BME280;33867;50.314;7.802;2022-12-29T21:29:16;99960.25;;;6.77;nan
48089;BME280;33867;50.314;7.802;2022-12-29T21:32:35;99958.00;;;6.82;nan
48089;BME280;33867;50.314;7.802;2022-12-29T21:35:54;99981.19;;;6.92;nan
48089;BME280;33867;50.314;7.802;2022-12-29T21:39:13;99973.09;;;7.03;nan
48089;BME280;33867;50.314;7.802;2022-12-29T21:42:34;99978.19;;;7.07;nan
48089;BME280;33867;50.314;7.802;2022-12-29T21:45:53;99974.03;;;7.14;nan
48089;BME280;33867;50.314;7.802;2022-12-29T21:49:12;99971.47;;;7.12;nan
48089;BME280;33867;50.314;7.802;2022-12-29T21:52:31;99985.31;;;7.17;nan
48089;BME280;33867;50.314;7.802;2022-12-29T21:59:38;99976.28;;;7.18;nan
48089;BME280;33867;50.314;7.802;2022-12-29T22:03:27;99977.69;;;7.13;nan
48089;BME280;33867;50.314;7.802;2022-12-29T22:07:06;99987.06;;;7.28;nan
48089;BME280;33867;50.314;7.802;2022-12-29T22:10:46;99990.66;;;7.17;nan
48089;BME280;33867;50.314;7.802;2022-12-29T22:14:24;99985.03;;;7.20;nan
48089;BME280;33867;50.314;7.802;2022-12-29T22:17:44;99987.22;;;7.26;nan
48089;BME280;33867;50.314;7.802;2022-12-29T22:21:08;99999.75;;;7.26;nan
48089;BME280;33867;50.314;7.802;2022-12-29T22:24:30;100006.47;;;7.20;nan
48089;BME280;33867;50.314;7.802;2022-12-29T22:27:49;100009.19;;;7.09;nan
48089;BME280;33867;50.314;7.802;2022-12-29T22:31:26;100023.97;;;7.03;nan
48089;BME280;33867;50.314;7.802;2022-12-29T22:34:47;99998.50;;;7.09;nan
48089;BME280;33867;50.314;7.802;2022-12-29T22:38:06;100012.00;;;7.08;nan
48089;BME280;33867;50.314;7.802;2022-12-29T22:41:25;100025.53;;;7.06;nan
48089;BME280;33867;50.314;7.802;2022-12-29T22:44:44;100020.09;;;6.96;nan
48089;BME280;33867;50.314;7.802;2022-12-29T22:48:03;100029.94;;;6.96;nan
48089;BME280;33867;50.314;7.802;2022-12-29T22:51:22;100027.00;;;6.78;nan
48089;BME280;33867;50.314;7.802;2022-12-29T22:54:41;100030.31;;;6.70;nan
48089;BME280;33867;50.314;7.802;2022-12-29T22:58:01;100029.44;;;6.70;nan
48089;BME280;33867;50.314;7.802;2022-12-29T23:01:21;100039.09;;;6.50;nan
48089;BME280;33867;50.314;7.802;2022-12-29T23:04:40;100038.19;;;6.40;nan
48089;BME280;33867;50.314;7.802;2022-12-29T23:07:59;100045.47;;;6.38;nan
48089;BME280;33867;50.314;7.802;2022-12-29T23:11:19;100047.16;;;6.39;nan
48089;BME280;33867;50.314;7.802;2022-12-29T23:14:38;100047.13;;;6.50;nan
48089;BME280;33867;50.314;7.802;2022-12-29T23:17:57;100054.72;;;6.34;nan
48089;BME280;33867;50.314;7.802;2022-12-29T23:21:18;100056.28;;;6.25;nan
48089;BME280;33867;50.314;7.802;2022-12-29T23:24:37;100047.41;;;6.36;nan
48089;BME280;33867;50.314;7.802;2022-12-29T23:27:56;100048.50;;;6.33;nan
48089;BME280;33867;50.314;7.802;2022-12-29T23:31:16;100042.72;;;6.06;nan
48089;BME280;33867;50.314;7.802;2022-12-29T23:34:35;100048.06;;;5.95;nan
48089;BME280;33867;50.314;7.802;2022-12-29T23:37:54;100052.44;;;5.96;nan
48089;BME280;33867;50.314;7.802;2022-12-29T23:41:13;100049.25;;;5.91;nan
48089;BME280;33867;50.314;7.802;2022-12-29T23:44:32;100058.59;;;5.85;nan
48089;BME280;33867;50.314;7.802;2022-12-29T23:47:51;100063.44;;;5.80;nan
48089;BME280;33867;50.314;7.802;2022-12-29T23:51:11;100074.16;;;5.91;nan
48089;BME280;33867;50.314;7.802;2022-12-29T23:54:30;100071.53;;;5.56;nan
48089;BME280;33867;50.314;7.802;2022-12-29T23:57:49;100068.25;;;5.52;nan
